createdAt,value
2022-11-05T00:00:52.673Z,63.44
2022-11-05T00:02:13.040Z,64.74
2022-11-05T00:03:58.460Z,63.76
2022-11-05T00:05:18.943Z,62.09
2022-11-05T00:06:39.296Z,60.98
2022-11-05T00:08:08.016Z,60.05
2022-11-05T00:09:29.657Z,58.98
2022-11-05T00:10:36.846Z,57.76
2022-11-05T00:11:57.496Z,58.15
2022-11-05T00:13:18.666Z,59.27
2022-11-05T00:14:39.275Z,60.89
2022-11-05T00:15:59.627Z,62.33
2022-11-05T00:17:01.362Z,64.15
2022-11-05T00:18:03.684Z,64.80
2022-11-05T00:19:09.030Z,64.42
2022-11-05T00:20:13.659Z,63.35
2022-11-05T00:21:34.005Z,62.26
2022-11-05T00:22:54.446Z,61.06
2022-11-05T00:24:17.277Z,60.09
2022-11-05T00:25:22.395Z,59.05
2022-11-05T00:26:24.170Z,58.02
2022-11-05T00:27:25.925Z,57.99
2022-11-05T00:28:29.954Z,58.75
2022-11-05T00:29:31.739Z,59.69
2022-11-05T00:30:33.481Z,60.89
2022-11-05T00:31:35.225Z,61.81
2022-11-05T00:32:36.993Z,62.94
2022-11-05T00:33:41.076Z,64.68
2022-11-05T00:34:42.875Z,65.25
2022-11-05T00:35:44.844Z,64.67
2022-11-05T00:36:46.579Z,63.68
2022-11-05T00:37:50.325Z,62.65
2022-11-05T00:38:52.499Z,61.68
2022-11-05T00:39:54.407Z,60.96
2022-11-05T00:40:56.786Z,60.28
2022-11-05T00:42:17.131Z,59.63
2022-11-05T00:43:37.178Z,58.44
2022-11-05T00:44:57.235Z,57.94
2022-11-05T00:45:59.357Z,58.80
2022-11-05T00:47:19.948Z,60.14
2022-11-05T00:48:41.017Z,61.60
2022-11-05T00:49:42.777Z,63.17
2022-11-05T00:50:44.635Z,64.83
2022-11-05T00:51:46.376Z,65.24
2022-11-05T00:52:57.074Z,64.76
2022-11-05T00:53:59.099Z,63.61
2022-11-05T00:55:00.874Z,62.62
2022-11-05T00:56:03.104Z,61.69
2022-11-05T00:57:04.996Z,61.00
2022-11-05T00:58:10.225Z,60.34
2022-11-05T00:59:11.972Z,59.78
2022-11-05T01:00:14.362Z,59.14
2022-11-05T01:01:16.183Z,58.10
2022-11-05T01:02:18.226Z,58.04
2022-11-05T01:03:23.514Z,58.84
2022-11-05T01:04:25.255Z,59.87
2022-11-05T01:05:28.399Z,60.70
2022-11-05T01:06:30.152Z,61.98
2022-11-05T01:07:31.946Z,63.55
2022-11-05T01:08:34.032Z,64.92
2022-11-05T01:09:35.752Z,65.16
2022-11-05T01:10:52.792Z,64.54
2022-11-05T01:11:55.781Z,63.20
2022-11-05T01:12:57.796Z,62.17
2022-11-05T01:14:01.651Z,61.35
2022-11-05T01:15:03.684Z,60.66
2022-11-05T01:16:10.241Z,60.19
2022-11-05T01:17:12.097Z,59.51
2022-11-05T01:18:14.465Z,58.59
2022-11-05T01:19:16.171Z,58.02
2022-11-05T01:20:18.261Z,58.63
2022-11-05T01:21:20.046Z,59.71
2022-11-05T01:22:21.786Z,60.85
2022-11-05T01:23:23.533Z,62.10
2022-11-05T01:24:25.443Z,63.55
2022-11-05T01:25:27.339Z,64.85
2022-11-05T01:26:29.497Z,65.02
2022-11-05T01:27:31.315Z,64.32
2022-11-05T01:28:33.231Z,63.31
2022-11-05T01:29:35.264Z,62.40
2022-11-05T01:30:38.208Z,61.63
2022-11-05T01:31:39.951Z,61.05
2022-11-05T01:32:41.918Z,60.33
2022-11-05T01:33:43.688Z,59.83
2022-11-05T01:34:45.432Z,59.31
2022-11-05T01:35:47.513Z,58.41
2022-11-05T01:36:49.332Z,58.27
2022-11-05T01:37:51.062Z,58.92
2022-11-05T01:38:52.794Z,60.16
2022-11-05T01:39:54.547Z,61.07
2022-11-05T01:40:56.399Z,62.38
2022-11-05T01:41:58.863Z,63.83
2022-11-05T01:43:00.633Z,65.16
2022-11-05T01:44:03.342Z,65.18
2022-11-05T01:45:19.939Z,64.45
2022-11-05T01:46:28.154Z,63.39
2022-11-05T01:48:08.734Z,62.49
2022-11-05T01:49:19.347Z,61.35
2022-11-05T01:50:31.633Z,60.56
2022-11-05T01:51:34.011Z,60.07
2022-11-05T01:52:36.232Z,59.71
2022-11-05T01:53:54.391Z,59.43
2022-11-05T01:54:56.822Z,58.35
2022-11-05T01:56:11.553Z,58.14
2022-11-05T01:57:15.147Z,59.12
2022-11-05T01:58:23.553Z,60.44
2022-11-05T01:59:32.359Z,61.57
2022-11-05T02:00:35.290Z,63.19
2022-11-05T02:01:37.537Z,64.84
2022-11-05T02:02:39.802Z,65.27
2022-11-05T02:03:46.817Z,64.69
2022-11-05T02:04:54.532Z,63.66
2022-11-05T02:06:00.402Z,62.72
2022-11-05T02:07:04.950Z,61.84
2022-11-05T02:08:13.352Z,61.03
2022-11-05T02:09:22.639Z,60.40
2022-11-05T02:10:24.524Z,59.85
2022-11-05T02:11:26.356Z,59.35
2022-11-05T02:12:32.007Z,58.45
2022-11-05T02:13:33.754Z,58.18
2022-11-05T02:14:35.495Z,58.88
2022-11-05T02:15:56.972Z,59.95
2022-11-05T02:17:22.847Z,61.66
2022-11-05T02:18:41.357Z,63.49
2022-11-05T02:20:12.352Z,64.89
2022-11-05T02:21:33.329Z,64.37
2022-11-05T02:23:12.136Z,63.17
2022-11-05T02:24:46.225Z,61.85
2022-11-05T02:26:17.427Z,60.71
2022-11-05T02:27:52.920Z,59.85
2022-11-05T02:29:15.983Z,58.84
2022-11-05T02:30:42.249Z,58.00
2022-11-05T02:32:00.337Z,58.96
2022-11-05T02:33:25.903Z,60.64
2022-11-05T02:34:48.560Z,61.87
2022-11-05T02:36:11.468Z,63.91
2022-11-05T02:37:33.541Z,65.56
2022-11-05T02:38:50.810Z,65.03
2022-11-05T02:40:05.017Z,63.93
2022-11-05T02:41:18.878Z,62.75
2022-11-05T02:42:43.016Z,61.85
2022-11-05T02:44:14.153Z,61.00
2022-11-05T02:45:45.491Z,60.21
2022-11-05T02:47:05.800Z,59.62
2022-11-05T02:48:29.139Z,58.98
2022-11-05T02:50:05.910Z,58.25
2022-11-05T02:51:27.195Z,59.37
2022-11-05T02:52:41.611Z,60.84
2022-11-05T02:54:02.156Z,62.42
2022-11-05T02:55:44.858Z,64.65
2022-11-05T02:56:51.786Z,65.27
2022-11-05T02:57:53.535Z,64.45
2022-11-05T02:58:55.280Z,63.58
2022-11-05T03:00:27.088Z,62.68
2022-11-05T03:01:28.927Z,61.48
2022-11-05T03:02:32.057Z,60.97
2022-11-05T03:03:43.606Z,60.34
2022-11-05T03:04:45.437Z,59.88
2022-11-05T03:06:08.580Z,59.45
2022-11-05T03:07:28.465Z,58.36
2022-11-05T03:08:56.075Z,58.40
2022-11-05T03:10:39.313Z,59.59
2022-11-05T03:12:18.929Z,61.41
2022-11-05T03:13:55.105Z,64.26
2022-11-05T03:15:24.456Z,65.71
2022-11-05T03:16:47.332Z,64.88
2022-11-05T03:18:43.913Z,63.62
2022-11-05T03:19:56.894Z,62.06
2022-11-05T03:21:04.985Z,61.29
2022-11-05T03:22:31.104Z,60.66
2022-11-05T03:23:39.222Z,60.04
2022-11-05T03:24:51.509Z,59.66
2022-11-05T03:26:10.012Z,59.06
2022-11-05T03:27:20.532Z,58.14
2022-11-05T03:28:28.847Z,58.75
2022-11-05T03:29:41.761Z,59.97
2022-11-05T03:30:45.873Z,61.48
2022-11-05T03:31:52.396Z,62.74
2022-11-05T03:33:00.192Z,64.52
2022-11-05T03:34:06.754Z,65.10
2022-11-05T03:35:16.501Z,64.59
2022-11-05T03:36:27.128Z,63.59
2022-11-05T03:37:34.461Z,62.52
2022-11-05T03:38:42.755Z,61.63
2022-11-05T03:39:50.807Z,60.91
2022-11-05T03:40:58.924Z,60.43
2022-11-05T03:42:06.189Z,59.79
2022-11-05T03:43:09.672Z,59.21
2022-11-05T03:44:18.535Z,58.32
2022-11-05T03:45:28.153Z,58.46
2022-11-05T03:46:38.635Z,59.51
2022-11-05T03:47:46.109Z,60.74
2022-11-05T03:48:53.710Z,62.22
2022-11-05T03:50:06.934Z,63.83
2022-11-05T03:51:25.640Z,65.05
2022-11-05T03:52:36.352Z,64.56
2022-11-05T03:53:49.158Z,63.69
2022-11-05T03:54:51.209Z,62.60
2022-11-05T03:56:02.974Z,61.92
2022-11-05T03:57:14.806Z,61.21
2022-11-05T03:58:21.464Z,60.59
2022-11-05T03:59:25.093Z,60.27
2022-11-05T04:00:26.980Z,59.78
2022-11-05T04:01:30.298Z,59.40
2022-11-05T04:02:32.319Z,58.59
2022-11-05T04:03:36.539Z,58.46
2022-11-05T04:04:38.784Z,59.13
2022-11-05T04:05:40.908Z,60.28
2022-11-05T04:07:00.970Z,61.54
2022-11-05T04:08:21.251Z,63.36
2022-11-05T04:09:41.724Z,64.97
2022-11-05T04:11:27.482Z,64.83
2022-11-05T04:12:47.788Z,63.47
2022-11-05T04:13:49.576Z,62.35
2022-11-05T04:14:51.385Z,61.68
2022-11-05T04:16:14.340Z,61.16
2022-11-05T04:17:16.113Z,60.42
2022-11-05T04:18:17.944Z,59.98
2022-11-05T04:19:39.648Z,59.64
2022-11-05T04:20:59.798Z,59.10
2022-11-05T04:22:19.844Z,58.22
2022-11-05T04:23:39.869Z,59.00
2022-11-05T04:24:41.566Z,60.27
2022-11-05T04:25:44.663Z,61.33
2022-11-05T04:26:47.462Z,61.88
2022-11-05T04:27:49.386Z,63.57
2022-11-05T04:29:11.308Z,65.08
2022-11-05T04:30:18.729Z,65.45
2022-11-05T04:31:20.524Z,64.63
2022-11-05T04:32:22.311Z,63.77
2022-11-05T04:33:24.080Z,62.79
2022-11-05T04:34:25.863Z,62.03
2022-11-05T04:35:30.371Z,61.43
2022-11-05T04:36:32.217Z,60.99
2022-11-05T04:37:33.948Z,60.50
2022-11-05T04:38:35.669Z,60.02
2022-11-05T04:39:37.376Z,59.73
2022-11-05T04:40:39.207Z,59.26
2022-11-05T04:41:41.688Z,58.40
2022-11-05T04:42:43.376Z,58.34
2022-11-05T04:43:45.154Z,59.20
2022-11-05T04:44:46.887Z,59.89
2022-11-05T04:45:48.801Z,61.32
2022-11-05T04:46:50.559Z,62.05
2022-11-05T04:47:52.621Z,63.81
2022-11-05T04:48:54.514Z,65.40
2022-11-05T04:49:56.263Z,66.01
2022-11-05T04:50:58.011Z,65.65
2022-11-05T04:51:59.743Z,64.88
2022-11-05T04:53:01.773Z,63.94
2022-11-05T04:54:03.652Z,63.22
2022-11-05T04:55:05.930Z,62.45
2022-11-05T04:56:23.301Z,61.66
2022-11-05T04:57:25.061Z,61.01
2022-11-05T04:58:26.844Z,60.55
2022-11-05T04:59:28.585Z,60.16
2022-11-05T05:00:30.448Z,59.88
2022-11-05T05:01:32.805Z,59.46
2022-11-05T05:02:36.854Z,58.77
2022-11-05T05:03:38.601Z,58.20
2022-11-05T05:04:40.337Z,58.77
2022-11-05T05:05:42.036Z,59.25
2022-11-05T05:06:43.765Z,60.20
2022-11-05T05:07:45.634Z,61.55
2022-11-05T05:08:49.149Z,63.62
2022-11-05T05:09:50.914Z,65.07
2022-11-05T05:10:52.670Z,65.44
2022-11-05T05:11:54.546Z,64.89
2022-11-05T05:12:56.826Z,64.15
2022-11-05T05:13:58.536Z,63.27
2022-11-05T05:15:00.320Z,62.55
2022-11-05T05:16:09.061Z,61.88
2022-11-05T05:17:10.783Z,61.22
2022-11-05T05:18:12.550Z,60.70
2022-11-05T05:19:14.282Z,60.20
2022-11-05T05:20:34.952Z,59.86
2022-11-05T05:21:39.593Z,59.51
2022-11-05T05:22:41.432Z,58.76
2022-11-05T05:23:43.672Z,58.31
2022-11-05T05:24:49.918Z,59.01
2022-11-05T05:25:54.193Z,60.03
2022-11-05T05:26:55.991Z,61.02
2022-11-05T05:27:58.360Z,62.30
2022-11-05T05:29:00.146Z,64.30
2022-11-05T05:30:02.091Z,65.52
2022-11-05T05:31:03.937Z,65.40
2022-11-05T05:32:06.900Z,65.08
2022-11-05T05:33:08.761Z,64.34
2022-11-05T05:34:13.116Z,63.37
2022-11-05T05:35:15.707Z,62.73
2022-11-05T05:36:17.481Z,62.21
2022-11-05T05:37:20.235Z,61.72
2022-11-05T05:38:21.972Z,61.37
2022-11-05T05:39:23.704Z,61.06
2022-11-05T05:40:25.418Z,60.68
2022-11-05T05:41:27.480Z,60.48
2022-11-05T05:42:29.437Z,60.24
2022-11-05T05:43:32.899Z,59.97
2022-11-05T05:44:34.636Z,59.84
2022-11-05T05:45:36.470Z,59.64
2022-11-05T05:46:38.266Z,59.55
2022-11-05T05:47:40.000Z,59.46
2022-11-05T05:48:43.209Z,58.97
2022-11-05T05:49:44.862Z,58.35
2022-11-05T05:50:46.584Z,58.71
2022-11-05T05:51:49.789Z,60.00
2022-11-05T05:52:51.503Z,61.19
2022-11-05T05:53:54.800Z,61.86
2022-11-05T05:54:56.586Z,63.93
2022-11-05T05:55:59.147Z,65.63
2022-11-05T05:57:00.896Z,65.86
2022-11-05T05:58:02.600Z,65.40
2022-11-05T05:59:05.711Z,64.59
2022-11-05T06:00:08.856Z,63.72
2022-11-05T06:01:19.685Z,62.84
2022-11-05T06:02:22.952Z,62.34
2022-11-05T06:03:24.978Z,61.79
2022-11-05T06:04:27.019Z,61.51
2022-11-05T06:05:28.771Z,61.07
2022-11-05T06:06:30.806Z,60.88
2022-11-05T06:07:37.070Z,60.71
2022-11-05T06:08:40.235Z,60.47
2022-11-05T06:09:42.012Z,60.28
2022-11-05T06:10:51.241Z,60.11
2022-11-05T06:11:53.060Z,60.05
2022-11-05T06:12:54.806Z,59.90
2022-11-05T06:13:56.606Z,59.77
2022-11-05T06:14:58.327Z,59.61
2022-11-05T06:16:06.054Z,59.45
2022-11-05T06:17:08.314Z,59.13
2022-11-05T06:18:10.017Z,58.55
2022-11-05T06:19:11.743Z,58.75
2022-11-05T06:20:13.499Z,59.27
2022-11-05T06:21:17.766Z,60.41
2022-11-05T06:22:19.613Z,61.27
2022-11-05T06:23:21.807Z,63.71
2022-11-05T06:24:23.619Z,65.73
2022-11-05T06:25:26.218Z,66.16
2022-11-05T06:26:28.344Z,65.75
2022-11-05T06:27:30.217Z,65.02
2022-11-05T06:28:33.522Z,64.12
2022-11-05T06:29:35.255Z,63.35
2022-11-05T06:30:37.069Z,62.78
2022-11-05T06:31:38.780Z,62.31
2022-11-05T06:32:40.572Z,61.82
2022-11-05T06:33:42.380Z,61.33
2022-11-05T06:34:44.099Z,61.06
2022-11-05T06:35:45.833Z,60.85
2022-11-05T06:36:47.574Z,60.76
2022-11-05T06:37:49.364Z,60.60
2022-11-05T06:38:51.089Z,60.41
2022-11-05T06:39:52.847Z,60.21
2022-11-05T06:40:54.964Z,60.06
2022-11-05T06:42:17.132Z,59.92
2022-11-05T06:43:18.740Z,59.73
2022-11-05T06:44:21.347Z,59.64
2022-11-05T06:45:23.123Z,59.50
2022-11-05T06:46:24.904Z,59.27
2022-11-05T06:47:26.913Z,58.63
2022-11-05T06:48:29.440Z,58.72
2022-11-05T06:49:31.142Z,59.59
2022-11-05T06:50:32.877Z,60.74
2022-11-05T06:51:34.959Z,62.02
2022-11-05T06:52:40.918Z,62.45
2022-11-05T06:53:43.420Z,64.92
2022-11-05T06:54:45.188Z,66.24
2022-11-05T06:55:48.008Z,66.14
2022-11-05T06:56:49.756Z,65.40
2022-11-05T06:57:51.657Z,64.50
2022-11-05T06:58:53.609Z,63.83
2022-11-05T07:00:00.101Z,63.32
2022-11-05T07:01:10.372Z,62.32
2022-11-05T07:02:13.692Z,61.80
2022-11-05T07:03:15.980Z,61.30
2022-11-05T07:04:17.846Z,61.05
2022-11-05T07:05:19.623Z,60.78
2022-11-05T07:06:21.388Z,60.47
2022-11-05T07:07:23.114Z,60.28
2022-11-05T07:08:24.976Z,60.16
2022-11-05T07:09:27.816Z,60.07
2022-11-05T07:10:30.009Z,59.84
2022-11-05T07:11:31.745Z,59.62
2022-11-05T07:12:33.472Z,59.59
2022-11-05T07:13:35.223Z,59.48
2022-11-05T07:14:36.964Z,59.34
2022-11-05T07:15:39.056Z,58.65
2022-11-05T07:16:40.774Z,58.57
2022-11-05T07:17:42.515Z,60.09
2022-11-05T07:18:44.222Z,61.00
2022-11-05T07:19:46.084Z,62.01
2022-11-05T07:20:48.931Z,63.83
2022-11-05T07:21:50.960Z,65.47
2022-11-05T07:23:01.249Z,65.67
2022-11-05T07:24:03.133Z,65.30
2022-11-05T07:25:06.419Z,64.54
2022-11-05T07:26:08.144Z,63.77
2022-11-05T07:27:09.872Z,63.13
2022-11-05T07:28:11.665Z,62.54
2022-11-05T07:29:13.383Z,62.16
2022-11-05T07:30:15.279Z,61.72
2022-11-05T07:31:17.020Z,61.21
2022-11-05T07:32:18.785Z,60.88
2022-11-05T07:33:20.516Z,60.61
2022-11-05T07:34:22.362Z,60.25
2022-11-05T07:35:25.076Z,59.95
2022-11-05T07:36:26.830Z,59.72
2022-11-05T07:37:28.557Z,59.58
2022-11-05T07:38:30.305Z,59.41
2022-11-05T07:39:32.132Z,58.72
2022-11-05T07:40:33.935Z,58.40
2022-11-05T07:41:36.313Z,59.20
2022-11-05T07:42:41.624Z,60.16
2022-11-05T07:43:43.328Z,61.16
2022-11-05T07:44:45.046Z,62.00
2022-11-05T07:45:47.814Z,63.72
2022-11-05T07:46:50.769Z,65.58
2022-11-05T07:47:58.544Z,65.87
2022-11-05T07:49:00.264Z,65.22
2022-11-05T07:50:01.996Z,64.47
2022-11-05T07:51:03.768Z,63.59
2022-11-05T07:52:05.789Z,63.01
2022-11-05T07:53:12.157Z,62.29
2022-11-05T07:54:14.091Z,61.64
2022-11-05T07:55:17.577Z,61.20
2022-11-05T07:56:19.574Z,60.77
2022-11-05T07:57:21.324Z,60.41
2022-11-05T07:58:23.071Z,60.20
2022-11-05T07:59:24.811Z,60.02
2022-11-05T08:00:27.798Z,59.73
2022-11-05T08:01:29.845Z,59.49
2022-11-05T08:02:31.977Z,59.22
2022-11-05T08:03:34.413Z,58.41
2022-11-05T08:04:36.397Z,58.43
2022-11-05T08:05:43.235Z,59.10
2022-11-05T08:06:45.048Z,60.45
2022-11-05T08:07:46.767Z,61.55
2022-11-05T08:08:48.509Z,62.62
2022-11-05T08:09:50.222Z,65.10
2022-11-05T08:10:52.028Z,66.15
2022-11-05T08:11:57.419Z,66.05
2022-11-05T08:13:03.843Z,65.35
2022-11-05T08:14:05.643Z,64.32
2022-11-05T08:15:07.932Z,63.38
2022-11-05T08:16:10.787Z,62.81
2022-11-05T08:17:18.224Z,62.10
2022-11-05T08:18:20.215Z,61.41
2022-11-05T08:19:22.299Z,60.93
2022-11-05T08:20:24.042Z,60.56
2022-11-05T08:21:25.797Z,60.22
2022-11-05T08:22:27.760Z,59.91
2022-11-05T08:23:31.757Z,59.58
2022-11-05T08:24:33.489Z,59.13
2022-11-05T08:25:36.057Z,58.43
2022-11-05T08:26:37.743Z,58.66
2022-11-05T08:27:40.616Z,59.49
2022-11-05T08:28:42.325Z,60.16
2022-11-05T08:29:44.039Z,61.05
2022-11-05T08:30:50.491Z,62.19
2022-11-05T08:31:52.271Z,63.74
2022-11-05T08:33:05.265Z,65.37
2022-11-05T08:34:07.849Z,65.79
2022-11-05T08:35:09.582Z,65.07
2022-11-05T08:36:11.407Z,64.27
2022-11-05T08:37:13.114Z,63.37
2022-11-05T08:38:17.532Z,62.46
2022-11-05T08:39:19.892Z,61.67
2022-11-05T08:40:21.632Z,61.10
2022-11-05T08:41:23.371Z,60.66
2022-11-05T08:42:25.199Z,60.43
2022-11-05T08:43:27.154Z,60.09
2022-11-05T08:44:28.979Z,59.84
2022-11-05T08:45:31.259Z,59.42
2022-11-05T08:46:40.372Z,58.77
2022-11-05T08:47:43.219Z,58.49
2022-11-05T08:48:45.009Z,59.33
2022-11-05T08:49:46.708Z,60.41
2022-11-05T08:50:49.036Z,61.38
2022-11-05T08:51:50.828Z,62.59
2022-11-05T08:52:52.689Z,64.47
2022-11-05T08:53:54.774Z,65.22
2022-11-05T08:54:56.509Z,65.04
2022-11-05T08:55:59.183Z,64.26
2022-11-05T08:57:01.222Z,63.36
2022-11-05T08:58:06.729Z,62.46
2022-11-05T08:59:08.645Z,61.76
2022-11-05T09:00:10.948Z,61.11
2022-11-05T09:01:12.804Z,60.53
2022-11-05T09:02:14.700Z,60.01
2022-11-05T09:03:17.383Z,59.52
2022-11-05T09:04:19.371Z,58.74
2022-11-05T09:05:21.140Z,58.00
2022-11-05T09:06:22.928Z,58.07
2022-11-05T09:07:24.951Z,59.16
2022-11-05T09:08:26.716Z,60.32
2022-11-05T09:09:28.443Z,61.48
2022-11-05T09:10:30.164Z,62.45
2022-11-05T09:11:56.932Z,63.95
2022-11-05T09:12:53.651Z,65.23
2022-11-05T09:13:55.559Z,64.84
2022-11-05T09:14:57.441Z,63.94
2022-11-05T09:15:59.958Z,63.05
2022-11-05T09:17:01.733Z,61.97
2022-11-05T09:18:07.775Z,61.19
2022-11-05T09:19:09.585Z,60.47
2022-11-05T09:20:12.401Z,59.94
2022-11-05T09:21:14.172Z,59.56
2022-11-05T09:22:15.940Z,58.91
2022-11-05T09:23:17.713Z,58.12
2022-11-05T09:24:19.451Z,58.37
2022-11-05T09:25:21.295Z,59.25
2022-11-05T09:26:23.192Z,60.51
2022-11-05T09:27:25.063Z,61.26
2022-11-05T09:28:28.341Z,62.80
2022-11-05T09:29:30.072Z,64.42
2022-11-05T09:30:31.799Z,65.44
2022-11-05T09:31:33.521Z,65.28
2022-11-05T09:32:35.284Z,64.51
2022-11-05T09:33:39.452Z,63.81
2022-11-05T09:34:44.339Z,62.84
2022-11-05T09:35:46.759Z,62.18
2022-11-05T09:36:48.465Z,61.48
2022-11-05T09:37:50.225Z,60.84
2022-11-05T09:38:51.942Z,60.39
2022-11-05T09:39:54.128Z,60.01
2022-11-05T09:41:17.456Z,59.65
2022-11-05T09:42:22.870Z,58.96
2022-11-05T09:43:32.151Z,58.14
2022-11-05T09:44:48.197Z,58.47
2022-11-05T09:45:56.554Z,59.69
2022-11-05T09:47:04.571Z,61.17
2022-11-05T09:48:15.835Z,62.10
2022-11-05T09:49:30.780Z,63.22
2022-11-05T09:50:37.859Z,65.12
2022-11-05T09:51:41.424Z,65.02
2022-11-05T09:52:43.503Z,64.20
2022-11-05T09:53:46.809Z,63.26
2022-11-05T09:54:50.412Z,62.32
2022-11-05T09:55:56.477Z,61.47
2022-11-05T09:57:02.338Z,60.75
2022-11-05T09:58:28.383Z,60.27
2022-11-05T09:59:45.925Z,59.58
2022-11-05T10:00:52.385Z,58.90
2022-11-05T10:02:11.870Z,58.15
2022-11-05T10:03:25.589Z,58.10
2022-11-05T10:04:31.203Z,59.71
2022-11-05T10:05:34.653Z,61.53
2022-11-05T10:06:48.637Z,62.03
2022-11-05T10:07:57.297Z,63.89
2022-11-05T10:09:20.378Z,66.14
2022-11-05T10:10:23.172Z,66.17
2022-11-05T10:12:06.931Z,65.38
2022-11-05T10:13:14.748Z,63.67
2022-11-05T10:14:48.509Z,62.67
2022-11-05T10:16:07.470Z,61.54
2022-11-05T10:17:26.236Z,60.87
2022-11-05T10:18:37.698Z,60.42
2022-11-05T10:20:08.270Z,59.81
2022-11-05T10:21:27.756Z,59.46
2022-11-05T10:22:41.935Z,58.37
2022-11-05T10:23:47.404Z,57.87
2022-11-05T10:24:50.985Z,58.62
2022-11-05T10:25:58.169Z,59.33
2022-11-05T10:27:00.668Z,60.35
2022-11-05T10:28:05.937Z,61.71
2022-11-05T10:29:13.207Z,63.56
2022-11-05T10:30:15.469Z,65.06
2022-11-05T10:31:21.172Z,65.46
2022-11-05T10:32:31.863Z,64.85
2022-11-05T10:33:41.847Z,63.83
2022-11-05T10:34:44.761Z,63.10
2022-11-05T10:35:51.368Z,62.22
2022-11-05T10:36:54.349Z,61.49
2022-11-05T10:37:57.464Z,60.63
2022-11-05T10:39:10.232Z,60.22
2022-11-05T10:40:36.355Z,59.72
2022-11-05T10:41:52.794Z,59.15
2022-11-05T10:43:04.985Z,58.10
2022-11-05T10:44:19.362Z,58.39
2022-11-05T10:45:32.068Z,59.15
2022-11-05T10:46:46.028Z,60.78
2022-11-05T10:47:56.548Z,63.23
2022-11-05T10:49:28.938Z,64.67
2022-11-05T10:50:31.493Z,65.07
2022-11-05T10:51:34.000Z,64.39
2022-11-05T10:52:52.552Z,63.36
2022-11-05T10:54:02.094Z,62.45
2022-11-05T10:55:17.224Z,61.72
2022-11-05T10:56:32.212Z,60.83
2022-11-05T10:57:38.588Z,60.36
2022-11-05T10:58:57.581Z,60.09
2022-11-05T11:00:17.991Z,59.19
2022-11-05T11:01:20.516Z,58.37
2022-11-05T11:02:26.356Z,58.74
2022-11-05T11:03:34.241Z,59.24
2022-11-05T11:04:38.104Z,60.58
2022-11-05T11:05:40.719Z,62.25
2022-11-05T11:06:55.293Z,63.39
2022-11-05T11:08:08.999Z,65.44
2022-11-05T11:09:21.834Z,65.32
2022-11-05T11:10:25.243Z,64.55
2022-11-05T11:11:39.133Z,63.77
2022-11-05T11:12:43.826Z,62.77
2022-11-05T11:13:56.837Z,62.04
2022-11-05T11:15:12.852Z,61.24
2022-11-05T11:16:20.959Z,60.75
2022-11-05T11:17:31.423Z,60.28
2022-11-05T11:18:40.421Z,59.83
2022-11-05T11:19:42.485Z,59.44
2022-11-05T11:20:46.584Z,58.44
2022-11-05T11:22:09.375Z,58.03
2022-11-05T11:23:16.213Z,58.83
2022-11-05T11:24:23.362Z,60.20
2022-11-05T11:25:27.942Z,61.18
2022-11-05T11:26:33.606Z,62.44
2022-11-05T11:27:35.610Z,64.19
2022-11-05T11:28:43.924Z,65.51
2022-11-05T11:30:00.209Z,65.43
2022-11-05T11:31:21.099Z,64.62
2022-11-05T11:32:28.592Z,63.23
2022-11-05T11:33:33.784Z,62.47
2022-11-05T11:34:39.743Z,61.56
2022-11-05T11:35:46.897Z,61.02
2022-11-05T11:36:54.524Z,60.68
2022-11-05T11:38:00.837Z,60.21
2022-11-05T11:39:06.706Z,59.62
2022-11-05T11:40:22.864Z,59.52
2022-11-05T11:41:29.848Z,58.59
2022-11-05T11:42:40.516Z,57.93
2022-11-05T11:43:44.170Z,58.56
2022-11-05T11:44:49.195Z,59.62
2022-11-05T11:45:56.522Z,60.49
2022-11-05T11:47:11.825Z,62.53
2022-11-05T11:48:21.776Z,64.65
2022-11-05T11:49:32.899Z,65.23
2022-11-05T11:50:39.521Z,64.71
2022-11-05T11:51:49.494Z,63.63
2022-11-05T11:52:52.386Z,62.78
2022-11-05T11:53:58.408Z,62.00
2022-11-05T11:55:09.515Z,61.38
2022-11-05T11:56:21.849Z,60.84
2022-11-05T11:57:29.240Z,60.20
2022-11-05T11:58:37.018Z,59.69
2022-11-05T12:00:07.300Z,59.04
2022-11-05T12:01:17.503Z,58.21
2022-11-05T12:02:58.706Z,58.69
2022-11-05T12:04:15.208Z,61.81
2022-11-05T12:05:40.706Z,63.28
2022-11-05T12:06:59.891Z,64.70
2022-11-05T12:08:19.120Z,64.55
2022-11-05T12:09:50.108Z,63.75
2022-11-05T12:11:15.374Z,62.71
2022-11-05T12:12:39.720Z,61.89
2022-11-05T12:13:56.978Z,61.29
2022-11-05T12:15:16.353Z,60.86
2022-11-05T12:16:36.568Z,60.17
2022-11-05T12:17:50.786Z,59.83
2022-11-05T12:19:34.330Z,59.58
2022-11-05T12:20:58.505Z,58.87
2022-11-05T12:22:18.590Z,58.38
2022-11-05T12:23:38.802Z,59.12
2022-11-05T12:25:21.950Z,62.69
2022-11-05T12:26:40.137Z,64.29
2022-11-05T12:28:17.441Z,64.52
2022-11-05T12:29:41.241Z,63.62
2022-11-05T12:30:56.584Z,62.37
2022-11-05T12:32:10.252Z,61.71
2022-11-05T12:33:39.908Z,60.67
2022-11-05T12:35:05.638Z,60.56
2022-11-05T12:36:32.252Z,60.16
2022-11-05T12:37:47.049Z,59.24
2022-11-05T12:39:05.402Z,59.06
2022-11-05T12:40:15.881Z,59.96
2022-11-05T12:41:30.355Z,61.12
2022-11-05T12:42:59.589Z,62.69
2022-11-05T12:44:18.740Z,64.67
2022-11-05T12:45:40.065Z,65.09
2022-11-05T12:47:33.894Z,64.31
2022-11-05T12:49:01.512Z,62.81
2022-11-05T12:50:28.521Z,61.82
2022-11-05T12:52:23.114Z,60.93
2022-11-05T12:53:46.255Z,59.79
2022-11-05T12:55:13.505Z,59.16
2022-11-05T12:56:38.173Z,58.15
2022-11-05T12:57:43.260Z,59.00
2022-11-05T12:58:55.042Z,59.79
2022-11-05T13:00:20.620Z,61.44
2022-11-05T13:01:35.448Z,62.61
2022-11-05T13:02:49.463Z,64.98
2022-11-05T13:04:01.421Z,65.37
2022-11-05T13:05:13.633Z,64.65
2022-11-05T13:06:21.693Z,63.69
2022-11-05T13:07:53.200Z,62.56
2022-11-05T13:08:59.566Z,61.42
2022-11-05T13:10:11.371Z,60.94
2022-11-05T13:11:21.597Z,60.35
2022-11-05T13:12:28.719Z,59.84
2022-11-05T13:13:48.609Z,58.98
2022-11-05T13:15:06.209Z,57.86
2022-11-05T13:16:26.952Z,58.53
2022-11-05T13:17:38.626Z,59.87
2022-11-05T13:18:48.979Z,61.01
2022-11-05T13:20:17.936Z,62.44
2022-11-05T13:21:24.797Z,64.53
2022-11-05T13:22:37.399Z,65.38
2022-11-05T13:24:11.036Z,64.91
2022-11-05T13:25:28.337Z,63.81
2022-11-05T13:26:37.860Z,62.56
2022-11-05T13:28:16.486Z,61.79
2022-11-05T13:29:29.225Z,60.49
2022-11-05T13:30:38.386Z,59.98
2022-11-05T13:31:57.912Z,59.62
2022-11-05T13:33:11.719Z,58.55
2022-11-05T13:34:13.844Z,57.68
2022-11-05T13:35:24.286Z,58.32
2022-11-05T13:36:52.472Z,59.46
2022-11-05T13:38:21.871Z,61.10
2022-11-05T13:39:36.385Z,63.04
2022-11-05T13:40:56.738Z,65.08
2022-11-05T13:42:27.427Z,65.69
2022-11-05T13:43:48.180Z,65.02
2022-11-05T13:45:03.169Z,63.97
2022-11-05T13:46:10.808Z,62.71
2022-11-05T13:47:51.047Z,62.02
2022-11-05T13:49:18.740Z,60.68
2022-11-05T13:50:41.778Z,60.05
2022-11-05T13:51:52.345Z,58.98
2022-11-05T13:53:26.526Z,58.21
2022-11-05T13:54:55.261Z,58.40
2022-11-05T13:56:34.254Z,60.92
2022-11-05T13:58:01.404Z,62.17
2022-11-05T13:59:11.814Z,63.55
2022-11-05T14:00:24.465Z,65.13
2022-11-05T14:01:54.558Z,65.46
2022-11-05T14:03:03.618Z,64.32
2022-11-05T14:04:06.466Z,63.39
2022-11-05T14:05:22.969Z,62.46
2022-11-05T14:06:33.275Z,61.44
2022-11-05T14:07:46.465Z,60.94
2022-11-05T14:08:48.472Z,60.21
2022-11-05T14:10:20.709Z,59.63
2022-11-05T14:11:31.000Z,58.87
2022-11-05T14:12:38.113Z,58.16
2022-11-05T14:13:44.496Z,58.83
2022-11-05T14:14:59.065Z,60.26
2022-11-05T14:16:03.652Z,60.95
2022-11-05T14:17:16.025Z,62.25
2022-11-05T14:18:56.467Z,64.09
2022-11-05T14:20:01.097Z,65.18
2022-11-05T14:21:05.416Z,64.76
2022-11-05T14:22:36.406Z,63.50
2022-11-05T14:23:50.066Z,62.19
2022-11-05T14:24:51.748Z,61.53
2022-11-05T14:25:56.959Z,60.96
2022-11-05T14:27:01.319Z,60.23
2022-11-05T14:28:03.608Z,59.21
2022-11-05T14:29:05.334Z,58.64
2022-11-05T14:30:45.370Z,58.63
2022-11-05T14:32:07.851Z,59.98
2022-11-05T14:33:37.942Z,61.73
2022-11-05T14:34:43.981Z,62.79
2022-11-05T14:35:45.789Z,64.90
2022-11-05T14:37:27.370Z,65.56
2022-11-05T14:38:29.565Z,64.63
2022-11-05T14:39:32.668Z,63.60
2022-11-05T14:40:39.612Z,62.96
2022-11-05T14:41:59.820Z,61.95
2022-11-05T14:43:05.936Z,61.12
2022-11-05T14:44:11.698Z,60.57
2022-11-05T14:45:13.304Z,59.71
2022-11-05T14:46:16.629Z,59.49
2022-11-05T14:47:25.628Z,58.58
2022-11-05T14:48:38.507Z,57.54
2022-11-05T14:49:58.153Z,58.11